Time;durP1;ratioP1;P1;durP2;ratioP2;P2;SDS_P1;SDS_P2;PMS_P1;PMS_P2;Temp;Humidity;BMP_temperature;BMP_pressure;BME280_temperature;BME280_humidity;BME280_pressure;Samples;Min_cycle;Max_cycle;Signal;HPM_P1;HPM_P2
2022/06/05 00:02:21;;;;;;;2.40;2.20;;;14.70;99.90;;;;;;7377928;19;20344;-73
2022/06/05 00:04:57;;;;;;;3.13;2.63;;;14.70;99.90;;;;;;7376003;19;20381;-75
2022/06/05 00:07:44;;;;;;;2.15;2.00;;;14.70;99.90;;;;;;7373350;19;20369;-74
2022/06/05 00:10:23;;;;;;;2.67;2.47;;;14.60;99.90;;;;;;7377040;19;20337;-74
2022/06/05 00:13:04;;;;;;;2.47;2.28;;;14.70;99.90;;;;;;7377547;19;20352;-75
2022/06/05 00:15:30;;;;;;;2.60;2.40;;;14.60;99.90;;;;;;7376978;19;20340;-73
2022/06/05 00:17:56;;;;;;;2.60;2.40;;;14.60;99.90;;;;;;7370533;19;20705;-75
2022/06/05 00:20:22;;;;;;;2.60;2.40;;;14.60;99.90;;;;;;7373524;19;20701;-76
2022/06/05 00:22:48;;;;;;;3.78;2.40;;;14.60;99.90;;;;;;7377070;19;20793;-77
2022/06/05 00:25:13;;;;;;;2.93;2.43;;;14.60;99.90;;;;;;7374181;19;20410;-75
2022/06/05 00:28:07;;;;;;;2.55;2.30;;;14.50;99.90;;;;;;7370859;19;20389;-74
2022/06/05 00:30:51;;;;;;;2.28;2.13;;;14.50;99.90;;;;;;7373504;19;20305;-74
2022/06/05 00:33:24;;;;;;;4.40;2.35;;;14.50;99.90;;;;;;7372736;19;20364;-73
2022/06/05 00:35:59;;;;;;;2.33;2.13;;;14.50;99.90;;;;;;7375627;19;20384;-73
2022/06/05 00:38:55;;;;;;;2.13;2.03;;;14.40;99.90;;;;;;7373452;19;20380;-76
2022/06/05 00:41:42;;;;;;;2.80;2.45;;;14.40;99.90;;;;;;7368594;19;21218;-73
2022/06/05 00:44:09;;;;;;;2.60;2.40;;;14.40;99.90;;;;;;7372289;19;20415;-74
2022/06/05 00:46:34;;;;;;;2.50;2.30;;;14.40;99.90;;;;;;7370248;19;20344;-73
2022/06/05 00:49:00;;;;;;;2.67;2.47;;;14.30;99.90;;;;;;7373298;19;20349;-73
2022/06/05 00:51:26;;;;;;;3.40;2.80;;;14.30;99.90;;;;;;7371199;19;20877;-75
2022/06/05 00:53:51;;;;;;;3.87;3.00;;;14.20;99.90;;;;;;7376674;19;20364;-73
2022/06/05 00:56:17;;;;;;;2.47;2.25;;;14.10;99.90;;;;;;7381070;19;20435;-74
2022/06/05 00:58:42;;;;;;;2.90;2.60;;;14.00;99.90;;;;;;7377184;19;20760;-74
2022/06/05 01:01:08;;;;;;;2.67;2.45;;;14.00;99.90;;;;;;7376931;19;20374;-76
2022/06/05 01:03:34;;;;;;;2.50;2.30;;;13.90;99.90;;;;;;7380288;19;20343;-73
2022/06/05 01:05:59;;;;;;;3.33;2.53;;;13.90;99.90;;;;;;7379451;19;20360;-73
2022/06/05 01:08:26;;;;;;;2.75;2.53;;;13.80;99.90;;;;;;7381488;19;20360;-73
2022/06/05 01:10:58;;;;;;;2.20;2.10;;;13.70;99.90;;;;;;7380460;19;20374;-73
2022/06/05 01:13:57;;;;;;;2.30;2.10;;;13.70;99.90;;;;;;7380734;19;20377;-74
2022/06/05 01:16:43;;;;;;;2.30;2.10;;;13.60;99.90;;;;;;7377116;19;20360;-76
2022/06/05 01:19:29;;;;;;;2.50;2.30;;;13.60;99.90;;;;;;7380480;19;20344;-74
2022/06/05 01:21:55;;;;;;;2.78;2.58;;;13.60;99.90;;;;;;7380867;19;20336;-73
2022/06/05 01:24:48;;;;;;;2.72;2.53;;;13.50;99.90;;;;;;7381480;19;20375;-74
2022/06/05 01:27:15;;;;;;;2.80;2.57;;;13.50;99.90;;;;;;7378187;19;20375;-74
2022/06/05 01:29:47;;;;;;;4.50;3.20;;;13.40;99.90;;;;;;7382642;19;20382;-73
2022/06/05 01:32:24;;;;;;;3.45;3.03;;;13.30;99.90;;;;;;7379432;19;20329;-73
2022/06/05 01:34:59;;;;;;;4.07;3.27;;;13.30;99.90;;;;;;7382593;19;20384;-77
2022/06/05 01:37:32;;;;;;;3.28;3.08;;;13.20;99.90;;;;;;7375035;19;20381;-73
2022/06/05 01:40:07;;;;;;;3.03;2.80;;;13.10;99.90;;;;;;7380003;19;20352;-74
2022/06/05 01:42:57;;;;;;;3.10;2.80;;;13.10;99.90;;;;;;7382124;19;20357;-74
2022/06/05 01:45:32;;;;;;;3.70;2.88;;;13.00;99.90;;;;;;7379747;19;20348;-77
2022/06/05 01:47:58;;;;;;;3.80;3.50;;;12.90;99.90;;;;;;7375027;19;20353;-77
2022/06/05 01:50:27;;;;;;;2.53;2.33;;;12.80;99.90;;;;;;7379145;19;20887;-77
2022/06/05 01:53:21;;;;;;;2.63;2.42;;;12.80;99.90;;;;;;7380817;19;20794;-73
2022/06/05 01:55:50;;;;;;;2.97;2.70;;;12.80;99.90;;;;;;7379429;19;21295;-73
2022/06/05 01:58:17;;;;;;;4.57;3.55;;;12.80;99.90;;;;;;7373725;19;20369;-74
2022/06/05 02:00:46;;;;;;;3.40;3.10;;;12.80;99.90;;;;;;7377686;19;20371;-73
2022/06/05 02:03:18;;;;;;;3.88;3.38;;;12.80;99.90;;;;;;7379852;19;21258;-76
2022/06/05 02:06:00;;;;;;;3.22;2.92;;;12.70;99.90;;;;;;7377362;19;20348;-73
2022/06/05 02:08:31;;;;;;;2.90;2.70;;;12.70;99.90;;;;;;7374474;19;20524;-73
2022/06/05 02:11:07;;;;;;;2.80;2.60;;;12.60;99.90;;;;;;7379594;19;20885;-72
2022/06/05 02:13:32;;;;;;;3.40;3.10;;;12.50;99.90;;;;;;7381182;19;20431;-73
2022/06/05 02:15:58;;;;;;;3.40;3.10;;;12.50;99.90;;;;;;7381345;19;20450;-75
2022/06/05 02:18:23;;;;;;;2.87;2.57;;;12.40;99.90;;;;;;7375578;19;20982;-74
2022/06/05 02:20:49;;;;;;;2.60;2.40;;;12.40;99.90;;;;;;7379465;19;20352;-73
2022/06/05 02:23:17;;;;;;;3.43;3.13;;;12.40;99.90;;;;;;7380523;19;20346;-73
2022/06/05 02:25:43;;;;;;;3.22;2.92;;;12.30;99.90;;;;;;7379541;19;20340;-73
2022/06/05 02:28:13;;;;;;;4.53;3.38;;;12.20;99.90;;;;;;7377337;19;20356;-73
2022/06/05 02:30:46;;;;;;;3.13;2.88;;;12.20;99.90;;;;;;7378708;19;20332;-75
2022/06/05 02:33:47;;;;;;;3.20;2.90;;;12.10;99.90;;;;;;7381208;19;21107;-74
2022/06/05 02:36:32;;;;;;;2.95;2.50;;;12.10;99.90;;;;;;7378712;19;20463;-74
2022/06/05 02:39:07;;;;;;;3.33;3.03;;;12.10;99.90;;;;;;7382126;19;20353;-74
2022/06/05 02:42:07;;;;;;;3.03;2.83;;;12.10;99.90;;;;;;7377982;19;20453;-73
2022/06/05 02:44:40;;;;;;;2.65;2.35;;;12.10;99.90;;;;;;7377972;19;20446;-74
2022/06/05 02:47:23;;;;;;;3.28;3.05;;;12.10;99.90;;;;;;7374313;19;20355;-73
2022/06/05 02:50:03;;;;;;;3.37;3.07;;;12.10;99.90;;;;;;7381551;19;20372;-73
2022/06/05 02:52:32;;;;;;;3.63;3.33;;;12.00;99.90;;;;;;7379867;19;21149;-74
2022/06/05 02:55:18;;;;;;;3.40;3.10;;;12.00;99.90;;;;;;7381582;19;20463;-73
2022/06/05 02:57:43;;;;;;;3.25;2.83;;;11.90;99.90;;;;;;7375022;19;20356;-73
2022/06/05 03:00:11;;;;;;;3.30;3.00;;;11.90;99.90;;;;;;7380508;19;20364;-72
2022/06/05 03:05:22;;;;;;;3.15;2.85;;;11.80;99.90;;;;;;7378513;19;20344;-73
2022/06/05 03:07:47;;;;;;;3.85;3.42;;;11.80;99.90;;;;;;7380236;19;20367;-73
2022/06/05 03:10:13;;;;;;;4.23;3.20;;;11.80;99.90;;;;;;7378692;19;20365;-74
2022/06/05 03:12:38;;;;;;;4.20;3.27;;;11.70;99.90;;;;;;7374996;19;20444;-73
2022/06/05 03:15:06;;;;;;;3.55;3.25;;;11.70;99.90;;;;;;7378181;19;20367;-75
2022/06/05 03:17:31;;;;;;;3.90;3.50;;;11.70;99.90;;;;;;7376457;19;20793;-74
2022/06/05 03:19:57;;;;;;;3.70;3.40;;;11.70;99.90;;;;;;7378245;19;20987;-73
2022/06/05 03:22:23;;;;;;;3.83;3.53;;;11.70;99.90;;;;;;7378905;19;20369;-75
2022/06/05 03:24:48;;;;;;;3.50;3.20;;;11.80;99.90;;;;;;7376823;19;20397;-73
2022/06/05 03:27:14;;;;;;;3.47;3.17;;;11.80;99.90;;;;;;7374463;19;20344;-74
2022/06/05 03:29:40;;;;;;;2.80;2.60;;;11.80;99.90;;;;;;7378462;19;20411;-77
2022/06/05 03:32:05;;;;;;;3.22;2.92;;;11.70;99.90;;;;;;7377376;19;20675;-74
2022/06/05 03:34:31;;;;;;;4.07;3.70;;;11.80;99.90;;;;;;7381121;19;20344;-72
2022/06/05 03:36:57;;;;;;;3.70;3.40;;;11.80;99.90;;;;;;7372663;19;20369;-74
2022/06/05 03:39:22;;;;;;;3.43;3.13;;;11.90;99.90;;;;;;7378331;19;20910;-74
2022/06/05 03:41:48;;;;;;;5.60;3.15;;;11.90;99.90;;;;;;7376255;19;20368;-73
2022/06/05 03:44:13;;;;;;;3.27;3.00;;;12.00;99.90;;;;;;7377718;19;20358;-73
2022/06/05 03:46:39;;;;;;;4.47;3.40;;;12.10;99.90;;;;;;7358345;19;20447;-76
2022/06/05 03:49:06;;;;;;;3.45;3.15;;;12.10;99.90;;;;;;7378052;19;22369;-75
2022/06/05 03:51:32;;;;;;;3.42;3.13;;;12.20;99.90;;;;;;7380323;19;20914;-73
2022/06/05 03:53:57;;;;;;;3.23;3.00;;;12.20;99.90;;;;;;7378187;19;20380;-74
2022/06/05 03:56:24;;;;;;;3.92;3.53;;;12.30;99.90;;;;;;7374102;19;21088;-74
2022/06/05 03:58:50;;;;;;;3.97;3.58;;;12.40;99.90;;;;;;7375642;19;20356;-73
2022/06/05 04:01:17;;;;;;;3.10;2.80;;;12.50;99.90;;;;;;7374020;19;20715;-73
2022/06/05 04:03:43;;;;;;;4.17;3.77;;;12.60;99.90;;;;;;7375693;19;20368;-73
2022/06/05 04:06:10;;;;;;;3.57;3.27;;;12.60;99.90;;;;;;7375218;19;20353;-73
2022/06/05 04:08:36;;;;;;;4.03;3.42;;;12.90;99.90;;;;;;7373391;19;20352;-75
2022/06/05 04:11:08;;;;;;;4.07;3.40;;;12.80;99.90;;;;;;7374918;19;21027;-73
2022/06/05 04:13:34;;;;;;;3.35;3.05;;;13.00;99.90;;;;;;7375833;19;20910;-73
2022/06/05 04:16:00;;;;;;;3.60;3.28;;;13.10;99.90;;;;;;7374933;19;20347;-73
2022/06/05 04:18:25;;;;;;;3.37;3.07;;;13.20;99.90;;;;;;7370858;19;20367;-76
2022/06/05 04:20:51;;;;;;;4.10;3.60;;;13.40;99.90;;;;;;7375072;19;20870;-73
2022/06/05 04:23:16;;;;;;;3.35;3.08;;;13.40;99.90;;;;;;7376281;19;20368;-73
2022/06/05 04:25:43;;;;;;;3.33;2.70;;;13.50;99.90;;;;;;7375931;19;20715;-74
2022/06/05 04:28:08;;;;;;;3.83;3.53;;;13.60;99.90;;;;;;7371756;19;20873;-74
2022/06/05 04:30:38;;;;;;;3.55;3.25;;;13.70;99.90;;;;;;7380944;19;20352;-75
2022/06/05 04:33:03;;;;;;;3.63;2.90;;;13.80;99.90;;;;;;7385324;19;21187;-73
2022/06/05 04:35:29;;;;;;;3.87;3.57;;;13.90;99.90;;;;;;7381849;19;20335;-73
2022/06/05 04:37:55;;;;;;;3.38;3.08;;;14.00;99.90;;;;;;7376304;19;21296;-75
2022/06/05 04:40:20;;;;;;;3.37;2.93;;;14.00;99.90;;;;;;7382452;19;20344;-74
2022/06/05 04:42:46;;;;;;;3.63;3.33;;;14.20;99.90;;;;;;7384264;19;20356;-73
2022/06/05 04:45:11;;;;;;;5.13;3.63;;;14.30;99.90;;;;;;7384014;19;20439;-74
2022/06/05 04:47:37;;;;;;;3.50;3.20;;;14.40;99.90;;;;;;7379990;19;21049;-77
2022/06/05 04:50:03;;;;;;;3.97;3.53;;;14.50;99.90;;;;;;7382980;19;20448;-73
2022/06/05 04:52:28;;;;;;;3.38;3.10;;;14.60;99.90;;;;;;7384610;19;20859;-73
2022/06/05 04:54:54;;;;;;;4.07;3.50;;;14.70;99.90;;;;;;7380869;19;20756;-74
2022/06/05 04:57:20;;;;;;;4.13;3.60;;;14.80;99.90;;;;;;7378685;19;20374;-77
2022/06/05 04:59:45;;;;;;;4.13;3.53;;;15.00;99.90;;;;;;7211465;19;3381508;-76
2022/06/05 05:02:11;;;;;;;3.63;3.33;;;15.00;99.90;;;;;;7383898;19;20356;-73
2022/06/05 05:04:36;;;;;;;4.13;3.63;;;15.10;99.90;;;;;;7385060;19;20363;-73
2022/06/05 05:07:03;;;;;;;3.77;3.47;;;15.20;99.90;;;;;;7380885;19;20397;-75
2022/06/05 05:09:29;;;;;;;3.85;3.50;;;15.30;99.90;;;;;;7383622;19;20361;-73
2022/06/05 05:11:55;;;;;;;3.77;3.47;;;15.40;99.90;;;;;;7385671;19;20340;-74
2022/06/05 05:14:20;;;;;;;4.35;3.67;;;15.50;99.90;;;;;;7384668;19;20714;-73
2022/06/05 05:16:46;;;;;;;3.97;3.43;;;15.50;99.90;;;;;;7382222;19;20353;-75
2022/06/05 05:19:11;;;;;;;3.73;3.33;;;15.70;99.90;;;;;;7386067;19;20684;-73
2022/06/05 05:21:37;;;;;;;3.58;3.08;;;15.90;99.90;;;;;;7381036;19;20344;-75
2022/06/05 05:24:03;;;;;;;3.93;3.60;;;16.10;99.90;;;;;;7383597;19;20374;-74
2022/06/05 05:26:31;;;;;;;3.83;3.20;;;16.30;99.90;;;;;;7380247;19;20360;-76
2022/06/05 05:28:56;;;;;;;4.28;3.55;;;16.40;99.90;;;;;;7382068;19;20406;-73
2022/06/05 05:31:29;;;;;;;4.38;3.97;;;16.60;99.90;;;;;;7382803;19;21292;-76
2022/06/05 05:33:56;;;;;;;4.57;4.03;;;16.70;99.90;;;;;;7385746;19;20375;-74
2022/06/05 05:36:22;;;;;;;4.22;3.50;;;16.80;99.90;;;;;;7376879;19;20360;-81
2022/06/05 05:44:17;;;;;;;4.82;4.20;;;17.20;99.90;;;;;;7384598;19;20436;-76
2022/06/05 05:46:43;;;;;;;4.10;3.78;;;17.30;99.90;;;;;;7383954;19;20348;-72
2022/06/05 05:49:09;;;;;;;3.90;3.60;;;17.30;99.90;;;;;;7384417;19;20364;-74
2022/06/05 05:51:34;;;;;;;4.75;3.70;;;17.20;99.90;;;;;;7385419;19;20379;-73
2022/06/05 05:54:00;;;;;;;4.97;3.40;;;17.40;99.90;;;;;;7384236;19;20353;-73
2022/06/05 05:56:26;;;;;;;4.00;3.60;;;17.60;99.90;;;;;;7380968;19;20372;-74
2022/06/05 05:58:51;;;;;;;3.60;3.10;;;17.70;99.90;;;;;;7383501;19;20340;-73
2022/06/05 06:01:17;;;;;;;3.90;3.60;;;17.80;99.90;;;;;;7382761;19;20831;-73
2022/06/05 06:03:42;;;;;;;3.95;3.55;;;18.10;99.90;;;;;;7383856;19;20372;-77
2022/06/05 06:06:08;;;;;;;4.00;3.70;;;18.20;99.90;;;;;;7383076;19;20424;-80
2022/06/05 06:08:33;;;;;;;4.00;3.60;;;18.30;99.90;;;;;;7380779;19;20355;-75
2022/06/05 06:10:59;;;;;;;4.10;3.80;;;18.30;99.90;;;;;;7380605;19;20439;-74
2022/06/05 06:13:25;;;;;;;4.85;4.15;;;18.40;99.90;;;;;;7382719;19;20934;-75
2022/06/05 06:15:50;;;;;;;4.00;3.07;;;18.40;99.90;;;;;;7382224;19;20989;-73
2022/06/05 06:18:16;;;;;;;3.58;3.28;;;18.70;99.90;;;;;;7378156;19;20341;-73
2022/06/05 06:20:41;;;;;;;4.32;3.63;;;19.00;99.90;;;;;;7382064;19;20355;-75
2022/06/05 06:23:07;;;;;;;3.40;3.10;;;19.30;99.90;;;;;;7384492;19;20357;-76
2022/06/05 06:25:33;;;;;;;3.50;3.20;;;19.50;99.90;;;;;;7383148;19;20729;-74
2022/06/05 06:27:58;;;;;;;3.55;3.25;;;19.80;99.90;;;;;;7378302;19;20361;-76
2022/06/05 06:30:24;;;;;;;4.10;3.70;;;19.80;99.90;;;;;;7381118;19;20361;-74
2022/06/05 06:32:49;;;;;;;4.37;3.80;;;19.70;99.90;;;;;;7382354;19;20357;-74
2022/06/05 06:35:15;;;;;;;3.70;3.40;;;19.80;99.90;;;;;;7381035;19;20368;-77
2022/06/05 06:37:41;;;;;;;3.30;3.00;;;19.80;99.90;;;;;;7380403;19;20377;-75
2022/06/05 06:40:07;;;;;;;3.93;3.60;;;20.00;99.90;;;;;;7380685;19;20360;-76
2022/06/05 06:42:32;;;;;;;3.85;3.47;;;20.10;99.90;;;;;;7382036;19;20360;-78
2022/06/05 06:44:58;;;;;;;5.30;4.10;;;20.30;99.90;;;;;;7382692;19;20383;-74
2022/06/05 06:47:23;;;;;;;3.75;3.45;;;20.40;99.90;;;;;;7379210;19;20706;-74
2022/06/05 06:49:49;;;;;;;3.57;3.00;;;20.70;99.90;;;;;;7381482;19;20439;-75
2022/06/05 06:52:15;;;;;;;4.03;3.60;;;21.10;99.90;;;;;;7380817;19;20953;-73
2022/06/05 06:54:41;;;;;;;4.38;3.63;;;21.30;99.90;;;;;;7380256;19;20341;-74
2022/06/05 06:57:07;;;;;;;4.07;3.60;;;21.50;99.90;;;;;;7378241;19;20712;-74
2022/06/05 06:59:33;;;;;;;3.55;3.25;;;21.60;99.90;;;;;;7380705;19;20357;-77
2022/06/05 07:01:58;;;;;;;3.95;3.60;;;21.80;99.90;;;;;;7377766;19;20351;-73
2022/06/05 07:04:24;;;;;;;4.38;3.97;;;22.20;99.90;;;;;;7382407;19;20352;-77
2022/06/05 07:06:49;;;;;;;3.87;3.57;;;22.20;99.90;;;;;;7377751;19;20444;-74
2022/06/05 07:09:15;;;;;;;4.00;3.70;;;22.20;99.90;;;;;;7380613;19;21191;-75
2022/06/05 07:11:41;;;;;;;4.33;3.60;;;22.40;99.90;;;;;;7380739;19;20344;-76
2022/06/05 07:14:07;;;;;;;3.80;3.50;;;22.50;99.90;;;;;;7382589;19;20415;-73
2022/06/05 07:16:32;;;;;;;4.10;3.80;;;22.70;99.90;;;;;;7376274;19;20371;-76
2022/06/05 07:18:58;;;;;;;4.80;4.30;;;22.70;99.90;;;;;;7381599;19;20363;-74
2022/06/05 07:21:24;;;;;;;6.70;4.47;;;22.70;99.90;;;;;;7379683;19;20937;-74
2022/06/05 07:23:50;;;;;;;3.95;3.65;;;22.80;99.90;;;;;;7381965;19;20356;-76
2022/06/05 07:26:17;;;;;;;4.93;4.27;;;23.00;99.90;;;;;;7378003;19;20351;-75
2022/06/05 07:28:43;;;;;;;5.95;4.45;;;23.20;99.90;;;;;;7379183;19;20340;-78
2022/06/05 07:31:09;;;;;;;4.27;3.97;;;23.30;99.90;;;;;;7381568;19;20333;-74
2022/06/05 07:33:35;;;;;;;5.60;4.30;;;23.60;99.90;;;;;;7383366;19;20451;-74
2022/06/05 07:36:03;;;;;;;4.63;4.20;;;23.70;99.90;;;;;;7379125;19;20360;-75
2022/06/05 07:38:29;;;;;;;4.20;3.80;;;23.80;99.90;;;;;;7379224;19;20640;-74
2022/06/05 07:40:55;;;;;;;4.40;4.00;;;23.90;99.90;;;;;;7379331;19;20957;-73
2022/06/05 07:43:21;;;;;;;3.70;3.40;;;24.20;99.90;;;;;;7380329;19;20362;-74
2022/06/05 07:45:46;;;;;;;4.78;4.18;;;24.30;99.90;;;;;;7379382;19;20370;-74
2022/06/05 07:48:12;;;;;;;4.60;4.20;;;24.40;99.90;;;;;;7375627;19;20378;-77
2022/06/05 07:54:26;;;;;;;4.60;4.20;;;24.50;99.90;;;;;;7380445;19;20356;-74
2022/06/05 07:56:07;;;;;;;5.03;4.28;;;24.60;99.90;;;;;;7378663;19;20911;-76
2022/06/05 07:58:33;;;;;;;5.18;4.43;;;24.80;99.90;;;;;;7378801;19;20372;-74
2022/06/05 08:00:58;;;;;;;4.37;4.00;;;24.80;99.90;;;;;;7380342;19;20363;-74
2022/06/05 08:03:24;;;;;;;6.93;4.20;;;25.00;99.90;;;;;;7380785;19;20424;-74
2022/06/05 08:05:49;;;;;;;4.57;4.17;;;25.40;99.90;;;;;;7389887;19;20355;-74
2022/06/05 08:08:15;;;;;;;4.70;4.30;;;25.60;99.90;;;;;;7381995;19;20753;-74
2022/06/05 08:10:40;;;;;;;5.25;4.75;;;25.80;99.90;;;;;;7388386;19;20360;-72
2022/06/05 08:13:06;;;;;;;6.00;5.22;;;25.40;99.90;;;;;;7389929;19;20439;-75
2022/06/05 08:15:32;;;;;;;5.00;4.50;;;25.50;99.90;;;;;;7388133;19;20373;-73
2022/06/05 08:17:57;;;;;;;4.87;4.47;;;25.40;99.90;;;;;;7383302;19;20360;-73
2022/06/05 08:20:23;;;;;;;4.83;4.43;;;25.60;99.90;;;;;;7385912;19;20740;-74
2022/06/05 08:22:48;;;;;;;5.50;4.87;;;26.10;99.90;;;;;;7388516;19;20420;-73
2022/06/05 08:25:14;;;;;;;4.72;4.32;;;26.40;99.90;;;;;;7387279;19;20776;-74
2022/06/05 08:27:40;;;;;;;5.88;5.28;;;26.60;99.90;;;;;;7381819;19;20340;-73
2022/06/05 08:30:06;;;;;;;6.40;5.80;;;26.80;99.90;;;;;;7386406;19;20345;-74
2022/06/05 08:32:32;;;;;;;6.35;5.78;;;26.90;99.90;;;;;;7388413;19;20352;-73
2022/06/05 08:34:57;;;;;;;6.03;5.43;;;26.90;99.90;;;;;;7388496;19;20863;-74
2022/06/05 08:43:04;;;;;;;7.15;5.80;;;27.10;99.90;;;;;;7386623;19;20721;-73
2022/06/05 08:46:03;;;;;;;6.17;5.57;;;27.10;99.90;;;;;;7383680;19;20367;-73
2022/06/05 08:48:38;;;;;;;6.78;6.07;;;26.70;99.90;;;;;;7378591;19;20379;-75
2022/06/05 08:51:17;;;;;;;5.55;5.05;;;26.40;99.90;;;;;;7380702;19;20333;-75
2022/06/05 08:53:50;;;;;;;5.82;5.30;;;26.60;99.90;;;;;;7380977;19;20377;-76
2022/06/05 08:56:22;;;;;;;4.90;4.47;;;27.00;99.90;;;;;;7378427;19;20368;-75
2022/06/05 08:58:54;;;;;;;5.47;4.97;;;27.40;99.90;;;;;;7379059;19;20356;-73
2022/06/05 09:01:49;;;;;;;4.72;3.97;;;27.30;99.90;;;;;;7380391;19;20363;-73
2022/06/05 09:04:22;;;;;;;4.45;4.05;;;28.00;99.90;;;;;;7383114;19;20360;-73
2022/06/05 09:06:59;;;;;;;4.30;3.97;;;28.60;99.90;;;;;;7376681;19;20551;-73
2022/06/05 09:09:28;;;;;;;4.68;4.22;;;28.90;99.90;;;;;;7380553;19;20363;-72
2022/06/05 09:12:13;;;;;;;4.65;4.15;;;29.20;99.90;;;;;;7382250;19;20352;-74
2022/06/05 09:14:56;;;;;;;5.90;4.38;;;29.40;99.90;;;;;;7381301;19;20452;-73
2022/06/05 09:17:21;;;;;;;5.35;3.92;;;29.60;99.90;;;;;;7375411;19;21262;-73
2022/06/05 09:19:48;;;;;;;4.23;3.60;;;29.60;99.90;;;;;;7382335;19;20381;-73
2022/06/05 09:22:40;;;;;;;3.95;3.58;;;29.40;98.60;;;;;;7384458;19;20356;-73
2022/06/05 09:25:43;;;;;;;3.73;3.43;;;29.30;98.70;;;;;;7383035;19;20448;-73
2022/06/05 09:28:35;;;;;;;4.43;4.05;;;29.30;98.30;;;;;;7381421;19;20368;-76
2022/06/05 09:31:23;;;;;;;3.67;3.33;;;29.20;97.50;;;;;;7383309;19;21061;-72
2022/06/05 09:33:49;;;;;;;3.72;3.42;;;29.70;98.30;;;;;;7383678;19;21014;-72
2022/06/05 09:36:16;;;;;;;3.80;3.50;;;30.30;97.20;;;;;;7383250;19;20398;-73
2022/06/05 09:38:45;;;;;;;4.25;3.80;;;30.70;97.40;;;;;;7382179;19;21211;-75
2022/06/05 09:41:37;;;;;;;4.05;3.75;;;31.00;95.60;;;;;;7380941;19;20673;-72
2022/06/05 09:44:41;;;;;;;4.60;3.95;;;30.90;94.80;;;;;;7383647;19;20903;-72
2022/06/05 09:47:16;;;;;;;3.90;3.60;;;30.20;94.00;;;;;;7382089;19;20401;-78
2022/06/05 09:49:45;;;;;;;4.93;3.63;;;30.40;95.10;;;;;;7382957;19;20457;-78
2022/06/05 09:52:14;;;;;;;3.60;3.30;;;30.70;93.10;;;;;;7383704;19;20371;-74
2022/06/05 09:55:00;;;;;;;3.60;3.30;;;31.40;93.80;;;;;;7385890;19;20425;-75
2022/06/05 10:00:44;;;;;;;6.88;5.88;;;31.70;91.20;;;;;;7382788;19;20320;-76
2022/06/05 10:03:19;;;;;;;4.53;4.18;;;32.00;90.90;;;;;;7383310;19;20352;-76
2022/06/05 10:06:06;;;;;;;4.10;3.80;;;32.10;90.60;;;;;;7383157;19;20383;-75
2022/06/05 10:08:44;;;;;;;4.78;4.05;;;32.50;89.10;;;;;;7379916;19;20432;-78
2022/06/05 10:11:28;;;;;;;3.92;3.60;;;32.60;87.20;;;;;;7380967;19;20353;-74
2022/06/05 10:14:24;;;;;;;3.70;3.40;;;33.00;88.30;;;;;;7385087;19;20444;-80
2022/06/05 10:17:24;;;;;;;3.90;3.60;;;32.80;83.50;;;;;;7377692;19;20445;-74
2022/06/05 10:20:14;;;;;;;3.55;3.25;;;31.90;86.20;;;;;;7384223;19;20364;-73
2022/06/05 10:22:39;;;;;;;3.83;3.30;;;31.40;89.60;;;;;;7385454;19;20903;-74
2022/06/05 10:25:34;;;;;;;3.63;3.27;;;31.40;83.50;;;;;;7383952;19;20364;-78
2022/06/05 10:28:02;;;;;;;3.80;3.50;;;30.80;82.80;;;;;;7377558;19;20364;-75
2022/06/05 10:30:55;;;;;;;3.87;3.47;;;30.40;84.90;;;;;;7380401;19;20325;-78
2022/06/05 10:33:39;;;;;;;3.60;3.30;;;31.00;88.70;;;;;;7382201;19;20424;-78
2022/06/05 10:36:04;;;;;;;3.37;3.17;;;31.60;87.90;;;;;;7380820;19;20360;-74
2022/06/05 10:38:55;;;;;;;3.90;3.53;;;32.10;86.50;;;;;;7381952;19;21345;-77
2022/06/05 10:41:34;;;;;;;3.55;3.25;;;32.10;86.10;;;;;;7380755;19;20378;-74
2022/06/05 10:44:35;;;;;;;3.42;2.88;;;32.00;82.30;;;;;;7380360;19;20709;-78
2022/06/05 10:47:13;;;;;;;3.70;3.40;;;32.90;85.00;;;;;;7378498;19;20372;-74
2022/06/05 10:49:55;;;;;;;3.55;3.28;;;33.40;81.70;;;;;;7382164;19;20332;-77
2022/06/05 10:52:44;;;;;;;3.63;3.33;;;33.20;78.10;;;;;;7379757;19;20372;-79
2022/06/05 10:55:51;;;;;;;3.72;3.42;;;33.50;77.50;;;;;;7380823;19;20364;-79
2022/06/05 10:58:32;;;;;;;3.42;3.17;;;33.60;76.00;;;;;;7372449;19;20435;-76
2022/06/05 11:01:12;;;;;;;4.28;3.08;;;33.60;77.10;;;;;;7380457;19;20408;-76
2022/06/05 11:03:59;;;;;;;4.00;3.63;;;34.20;79.10;;;;;;7381709;19;20361;-75
2022/06/05 11:06:54;;;;;;;3.50;3.30;;;33.80;73.20;;;;;;7378930;19;20399;-76
2022/06/05 11:10:18;;;;;;;3.40;3.20;;;33.30;73.70;;;;;;7378331;19;20349;-77
2022/06/05 11:15:57;;;;;;;3.45;3.15;;;33.00;71.20;;;;;;7379802;19;20372;-80
2022/06/05 11:18:38;;;;;;;4.57;3.33;;;32.90;75.50;;;;;;7375720;19;20375;-78
2022/06/05 11:21:04;;;;;;;3.20;2.92;;;32.60;75.80;;;;;;7380511;19;20357;-77
2022/06/05 11:23:33;;;;;;;3.43;3.13;;;32.60;75.80;;;;;;7379936;19;20863;-75
2022/06/05 11:26:21;;;;;;;3.33;3.03;;;33.10;74.10;;;;;;7376980;19;20364;-75
2022/06/05 11:29:07;;;;;;;3.25;3.05;;;33.40;75.70;;;;;;7380096;19;20356;-77
2022/06/05 11:32:10;;;;;;;3.33;3.13;;;33.90;73.10;;;;;;7378996;19;20341;-78
2022/06/05 11:34:44;;;;;;;3.70;3.40;;;34.70;72.10;;;;;;7381757;19;20345;-75
2022/06/05 11:37:18;;;;;;;3.90;3.60;;;34.60;66.90;;;;;;7377791;19;20448;-76
2022/06/05 11:39:58;;;;;;;3.60;3.30;;;34.70;65.30;;;;;;7376487;19;20364;-75
2022/06/05 11:42:30;;;;;;;3.40;3.10;;;34.10;66.30;;;;;;7376618;19;20392;-78
2022/06/05 11:45:56;;;;;;;3.08;2.88;;;33.50;65.20;;;;;;7377713;19;20473;-77
2022/06/05 11:48:28;;;;;;;3.00;2.80;;;33.40;66.20;;;;;;7372528;19;21341;-75
2022/06/05 11:51:10;;;;;;;2.75;2.55;;;34.10;68.30;;;;;;7377224;19;20459;-74
2022/06/05 11:53:45;;;;;;;3.80;2.85;;;34.80;68.40;;;;;;7376754;19;20946;-77
2022/06/05 11:56:32;;;;;;;3.10;2.80;;;34.90;66.20;;;;;;7378674;19;20364;-79
2022/06/05 11:59:04;;;;;;;3.30;3.00;;;35.50;66.00;;;;;;7379036;19;20356;-76
2022/06/05 12:01:32;;;;;;;2.83;2.63;;;35.20;63.70;;;;;;7376732;19;20355;-76
2022/06/05 12:04:15;;;;;;;3.08;2.67;;;35.10;63.80;;;;;;7378088;19;20356;-80
2022/06/05 12:06:46;;;;;;;3.03;2.60;;;35.40;64.40;;;;;;7374255;19;20399;-81
2022/06/05 12:09:33;;;;;;;3.08;2.85;;;35.60;62.30;;;;;;7376828;19;20359;-76
2022/06/05 12:12:17;;;;;;;3.33;3.03;;;35.30;61.80;;;;;;7377970;19;20405;-77
2022/06/05 12:15:02;;;;;;;3.10;2.90;;;35.30;61.20;;;;;;7376332;19;20373;-81
2022/06/05 12:18:00;;;;;;;3.50;3.20;;;35.80;63.20;;;;;;7373447;19;20372;-77
2022/06/05 12:20:42;;;;;;;2.95;2.75;;;35.50;59.30;;;;;;7377736;19;20373;-76
2022/06/05 12:23:19;;;;;;;2.58;2.40;;;35.50;60.80;;;;;;7379015;19;20337;-80
2022/06/05 12:25:55;;;;;;;3.25;3.05;;;36.10;62.70;;;;;;7376708;19;20359;-78
2022/06/05 12:28:32;;;;;;;3.08;2.88;;;35.70;55.60;;;;;;7373187;19;20380;-82
2022/06/05 12:31:08;;;;;;;2.90;2.70;;;34.80;55.90;;;;;;7373088;19;20419;-78
2022/06/05 12:33:46;;;;;;;2.33;2.23;;;35.40;57.60;;;;;;7377173;19;20479;-76
2022/06/05 12:36:32;;;;;;;2.80;2.50;;;35.70;58.20;;;;;;7374354;19;20895;-79
2022/06/05 12:39:03;;;;;;;3.00;2.70;;;35.00;58.20;;;;;;7377265;19;20892;-78
2022/06/05 12:41:43;;;;;;;2.70;2.50;;;35.00;56.10;;;;;;7373221;19;20377;-74
2022/06/05 12:44:29;;;;;;;2.83;2.63;;;35.40;58.80;;;;;;7377149;19;20407;-75
2022/06/05 12:47:19;;;;;;;2.90;2.67;;;35.70;58.80;;;;;;7370515;19;20352;-80
2022/06/05 12:49:58;;;;;;;2.70;2.50;;;35.80;55.80;;;;;;7378066;19;20356;-80
2022/06/05 12:52:29;;;;;;;2.60;2.40;;;35.60;57.40;;;;;;7383756;19;20612;-75
2022/06/05 12:55:18;;;;;;;2.92;2.72;;;35.90;57.30;;;;;;7380886;19;20864;-76
2022/06/05 12:57:46;;;;;;;2.95;2.75;;;35.90;55.60;;;;;;7379968;19;20899;-76
2022/06/05 13:00:20;;;;;;;2.70;2.50;;;35.20;55.10;;;;;;7382449;19;20369;-80
2022/06/05 13:02:59;;;;;;;2.67;2.47;;;35.60;56.60;;;;;;7384437;19;20779;-77
2022/06/05 13:05:35;;;;;;;2.75;2.55;;;34.80;55.70;;;;;;7382875;19;20373;-80
2022/06/05 13:08:09;;;;;;;2.83;2.53;;;35.30;59.00;;;;;;7375281;19;20424;-78
2022/06/05 13:10:50;;;;;;;2.87;2.67;;;36.00;57.90;;;;;;7383027;19;20356;-79
2022/06/05 13:13:42;;;;;;;2.80;2.60;;;36.10;55.90;;;;;;7383058;19;20714;-85
2022/06/05 13:16:16;;;;;;;3.15;2.90;;;35.80;55.50;;;;;;7382385;19;20356;-80
2022/06/05 13:19:00;;;;;;;2.85;2.65;;;35.20;55.50;;;;;;7380468;19;20349;-75
2022/06/05 13:21:36;;;;;;;2.70;2.50;;;35.30;55.20;;;;;;7382998;19;20380;-76
2022/06/05 13:24:35;;;;;;;2.80;2.60;;;35.20;56.10;;;;;;7382104;19;20356;-74
2022/06/05 13:27:33;;;;;;;2.85;2.65;;;35.40;56.20;;;;;;7378081;19;20444;-78
2022/06/05 13:30:01;;;;;;;2.73;2.53;;;35.80;56.10;;;;;;7380133;19;20364;-80
2022/06/05 13:32:50;;;;;;;2.85;2.65;;;36.10;55.10;;;;;;7381546;19;20345;-80
2022/06/05 13:35:27;;;;;;;2.85;2.55;;;36.40;55.50;;;;;;7384213;19;20349;-80
2022/06/05 13:38:14;;;;;;;2.80;2.60;;;36.50;55.00;;;;;;7378552;19;20374;-82
2022/06/05 13:40:47;;;;;;;2.95;2.72;;;36.60;54.10;;;;;;7378836;19;20361;-83
2022/06/05 13:43:16;;;;;;;2.75;2.55;;;36.40;53.80;;;;;;7380912;19;20398;-78